Flight Track Log - Related Links

Times and Time Zones

All times are in EDT time to prevent confusion due to time zone crossing. See the UAL4180 flight status page for this flight to view local times or setup timezone preferences in your user account.

Time Position Orientation Groundspeed Altitude Reporting Facility
EDT Latitude Longitude Course Direction KTS MPH feet Rate Location/Type
Sat 12:34:46 PM 29.9639 -95.3433 97° East 149 171 600  Level Houston Center
Sat 12:35:17 PM 29.9472 -95.3236 134° Southeast 182 209 1,600 1,800 Climbing Houston Center
Sat 12:36:16 PM 29.9150 -95.2739 127° Southeast 208 239 3,300 2,083 Climbing Houston Center
Sat 12:37:00 PM 29.9284 -94.9716 97° East  Level FlightAware Approximate
Sat 12:37:18 PM 29.8811 -95.2003 118° Southeast 259 298 5,800  Level Houston Center
Sat 12:38:00 PM 29.9153 -94.8502 95° East  Level FlightAware Approximate
Sat 12:38:20 PM 29.8803 -95.1119 91° East 273 314 8,600  Level Houston Center
Sat 12:39:00 PM 29.9052 -94.7283 95° East  Level FlightAware Approximate
Sat 12:39:22 PM 29.8775 -95.0233 92° East 274 315 10,400  Level Houston Center
Sat 12:40:00 PM 29.8934 -94.6067 97° East  Level FlightAware Approximate
Sat 12:40:24 PM 29.8761 -94.9156 91° East 324 373 11,000  Level Houston Center
Sat 12:41:26 PM 29.8728 -94.7722 92° East 369 425 12,400 1,415 Climbing Houston Center
Sat 12:42:27 PM 29.8700 -94.6517 91° East 376 433 13,900 1,463 Climbing Houston Center
Sat 12:43:29 PM 29.8678 -94.5317 91° East 374 430 15,400 1,355 Climbing Houston Center
Sat 12:44:31 PM 29.8647 -94.4092 92° East 380 437 16,700 1,113 Climbing Houston Center
Sat 12:45:33 PM 29.8608 -94.2831 92° East 391 450 17,700 968 Climbing Houston Center
Sat 12:46:35 PM 29.8572 -94.1600 92° East 400 460 18,700 1,113 Climbing Houston Center
Sat 12:47:37 PM 29.8644 -94.0036 87° East 411 473 20,000 1,161 Climbing Houston Center
Sat 12:48:39 PM 29.8872 -93.8742 78° East 415 478 21,100 1,065 Climbing Houston Center
Sat 12:49:41 PM 29.9103 -93.7417 79° East 422 486 22,200 1,065 Climbing Houston Center
Sat 12:50:43 PM 29.9331 -93.6078 79° East 428 493 23,300 1,073 Climbing Houston Center
Sat 12:51:44 PM 29.9550 -93.4742 79° East 429 494 24,400 1,171 Climbing Houston Center
Sat 12:52:46 PM 29.9822 -93.3133 79° East 430 495 25,700 1,161 Climbing Houston Center
Sat 12:53:48 PM 30.0058 -93.1775 79° East 434 499 26,800 1,065 Climbing Houston Center
Sat 12:54:50 PM 30.0283 -93.0403 79° East 439 505 27,900 1,016 Climbing Houston Center
Sat 12:55:52 PM 30.0522 -92.9056 78° East 432 497 28,900 532 Climbing Houston Center
Sat 12:56:54 PM 30.0756 -92.7625 79° East 452 520 29,000 48 Climbing Houston Center
Sat 12:57:56 PM 30.1042 -92.5842 79° East 474 545 29,000  Level Houston Center
Sat 12:58:57 PM 30.1308 -92.4297 79° East 488 562 29,000  Level Houston Center
Sat 12:59:59 PM 30.1553 -92.2739 80° East 493 567 29,000  Level Houston Center
Sat 01:01:01 PM 30.1836 -92.1167 78° East 499 574 29,000  Level Houston Center
Sat 01:02:03 PM 30.2064 -91.9611 80° East 497 572 29,000  Level Houston Center
Sat 01:03:05 PM 30.2347 -91.7792 80° East 492 566 29,000  Level Houston Center
Sat 01:04:07 PM 30.2553 -91.6528 79° East 490 564 29,000  Level Houston Center
Sat 01:05:09 PM 30.2839 -91.4686 80° East 486 559 29,000  Level Houston Center
Sat 01:06:10 PM 30.3078 -91.3144 80° East 487 560 29,000  Level Houston Center
Sat 01:07:12 PM 30.3319 -91.1614 80° East 486 559 29,000  Level Houston Center
Sat 01:08:14 PM 30.3550 -91.0078 80° East 485 558 29,000  Level Houston Center
Sat 01:09:16 PM 30.3783 -90.8547 80° East 485 558 29,000  Level Houston Center
Sat 01:10:18 PM 30.4006 -90.7011 80° East 486 559 29,000 -194 Level Houston Center
Sat 01:11:20 PM 30.4283 -90.5164 80° East 488 562 28,600 -823 Descending Houston Center
Sat 01:12:22 PM 30.4508 -90.3608 80° East 489 563 27,300 -1,220 Descending Houston Center
Sat 01:13:23 PM 30.4739 -90.2044 80° East 492 566 26,100 -1,122 Descending Houston Center
Sat 01:14:25 PM 30.4967 -90.0506 80° East 485 558 25,000 -1,113 Descending Houston Center
Sat 01:15:27 PM 30.5183 -89.8953 81° East 482 555 23,800 -1,161 Descending Houston Center
Sat 01:16:29 PM 30.5397 -89.7394 81° East 479 551 22,600 -1,452 Descending Houston Center
Sat 01:17:31 PM 30.5600 -89.5911 81° East 462 532 20,800 -1,790 Descending Houston Center
Sat 01:18:33 PM 30.5806 -89.4503 80° East 442 509 18,900 -1,756 Descending Houston Center
Sat 01:19:34 PM 30.5972 -89.3178 82° East 420 483 17,200 -1,902 Descending Houston Center
Sat 01:20:36 PM 30.6175 -89.1658 81° East 400 460 15,000 -1,984 Descending Houston Center
Sat 01:21:38 PM 30.6339 -89.0408 81° East 392 451 13,100 -1,694 Descending Houston Center
Sat 01:22:40 PM 30.6489 -88.9278 81° East 386 444 11,500 -1,355 Descending Houston Center
Sat 01:23:42 PM 30.6736 -88.8186 75° East 353 406 10,300 -1,403 Descending Houston Center
Sat 01:24:44 PM 30.7042 -88.7089 72° East 300 345 8,600 -2,177 Descending Houston Center
Sat 01:25:46 PM 30.7292 -88.6244 71° East 283 326 5,800 -2,195 Descending Houston Center
Sat 01:26:47 PM 30.7539 -88.5436 70° East 272 313 4,100 -1,024 Descending Houston Center
Sat 01:27:49 PM 30.7794 -88.4639 70° East 265 305 3,700 -968 Descending Houston Center
Sat 01:28:51 PM 30.7894 -88.3825 82° East 265 305 2,100 -1,548 Descending Houston Center

Login

Don't have an account? Register now (free) for customized features, flight alerts, and more!